sensor_id;sensor_type;location;lat;lon;timestamp;pressure;altitude;pressure_sealevel;temperature;humidity
22031;BME280;11179;52.106;21.024;2023-03-19T00:01:15;100633.22;;;5.56;43.94
22031;BME280;11179;52.106;21.024;2023-03-19T00:03:41;100629.03;;;5.54;44.06
22031;BME280;11179;52.106;21.024;2023-03-19T00:06:06;100628.22;;;5.46;44.08
22031;BME280;11179;52.106;21.024;2023-03-19T00:08:32;100631.41;;;5.43;44.26
22031;BME280;11179;52.106;21.024;2023-03-19T00:10:57;100622.41;;;5.36;43.92
22031;BME280;11179;52.106;21.024;2023-03-19T00:13:23;100624.72;;;5.39;44.47
22031;BME280;11179;52.106;21.024;2023-03-19T00:15:48;100618.03;;;5.35;44.54
22031;BME280;11179;52.106;21.024;2023-03-19T00:18:14;100622.00;;;5.33;44.30
22031;BME280;11179;52.106;21.024;2023-03-19T00:20:39;100625.41;;;5.28;44.65
22031;BME280;11179;52.106;21.024;2023-03-19T00:23:04;100616.22;;;5.23;44.59
22031;BME280;11179;52.106;21.024;2023-03-19T00:25:30;100613.69;;;5.21;44.50
22031;BME280;11179;52.106;21.024;2023-03-19T00:27:56;100611.88;;;5.15;44.67
22031;BME280;11179;52.106;21.024;2023-03-19T00:30:21;100608.72;;;5.11;44.71
22031;BME280;11179;52.106;21.024;2023-03-19T00:32:48;100615.63;;;5.14;44.78
22031;BME280;11179;52.106;21.024;2023-03-19T00:35:13;100617.53;;;5.13;44.67
22031;BME280;11179;52.106;21.024;2023-03-19T00:37:39;100611.66;;;5.10;45.02
22031;BME280;11179;52.106;21.024;2023-03-19T00:40:05;100615.44;;;5.09;45.03
22031;BME280;11179;52.106;21.024;2023-03-19T00:42:31;100615.06;;;5.05;44.99
22031;BME280;11179;52.106;21.024;2023-03-19T00:44:56;100605.22;;;4.98;45.11
22031;BME280;11179;52.106;21.024;2023-03-19T00:47:22;100606.47;;;5.02;45.35
22031;BME280;11179;52.106;21.024;2023-03-19T00:49:47;100614.22;;;4.98;45.15
22031;BME280;11179;52.106;21.024;2023-03-19T00:52:13;100606.72;;;4.94;45.56
22031;BME280;11179;52.106;21.024;2023-03-19T00:54:38;100612.59;;;4.91;45.42
22031;BME280;11179;52.106;21.024;2023-03-19T00:57:03;100607.16;;;4.91;45.56
22031;BME280;11179;52.106;21.024;2023-03-19T00:59:29;100615.53;;;4.89;45.68
22031;BME280;11179;52.106;21.024;2023-03-19T01:01:55;100608.84;;;4.85;45.80
22031;BME280;11179;52.106;21.024;2023-03-19T01:04:20;100613.88;;;4.82;45.69
22031;BME280;11179;52.106;21.024;2023-03-19T01:06:46;100617.63;;;4.80;45.81
22031;BME280;11179;52.106;21.024;2023-03-19T01:09:11;100612.66;;;4.77;45.79
22031;BME280;11179;52.106;21.024;2023-03-19T01:11:36;100602.63;;;4.71;46.03
22031;BME280;11179;52.106;21.024;2023-03-19T01:14:02;100613.06;;;4.74;46.27
22031;BME280;11179;52.106;21.024;2023-03-19T01:16:27;100601.19;;;4.62;45.91
22031;BME280;11179;52.106;21.024;2023-03-19T01:18:53;100617.09;;;4.65;46.10
22031;BME280;11179;52.106;21.024;2023-03-19T01:21:19;100606.63;;;4.56;46.54
22031;BME280;11179;52.106;21.024;2023-03-19T01:23:44;100607.66;;;4.55;46.41
22031;BME280;11179;52.106;21.024;2023-03-19T01:26:09;100616.25;;;4.58;46.77
22031;BME280;11179;52.106;21.024;2023-03-19T01:28:35;100606.25;;;4.52;46.40
22031;BME280;11179;52.106;21.024;2023-03-19T01:31:06;100627.13;;;4.58;46.56
22031;BME280;11179;52.106;21.024;2023-03-19T01:33:31;100621.47;;;4.53;46.47
22031;BME280;11179;52.106;21.024;2023-03-19T01:35:57;100621.94;;;4.50;46.31
22031;BME280;11179;52.106;21.024;2023-03-19T01:38:26;100619.84;;;4.52;46.55
22031;BME280;11179;52.106;21.024;2023-03-19T01:40:52;100628.59;;;4.54;46.72
22031;BME280;11179;52.106;21.024;2023-03-19T01:43:22;100618.59;;;4.48;46.79
22031;BME280;11179;52.106;21.024;2023-03-19T01:45:56;100617.75;;;4.48;46.82
22031;BME280;11179;52.106;21.024;2023-03-19T01:48:36;100617.31;;;4.44;46.99
22031;BME280;11179;52.106;21.024;2023-03-19T01:51:03;100625.69;;;4.49;46.77
22031;BME280;11179;52.106;21.024;2023-03-19T01:53:32;100622.56;;;4.46;46.98
22031;BME280;11179;52.106;21.024;2023-03-19T01:56:13;100604.38;;;4.33;47.23
22031;BME280;11179;52.106;21.024;2023-03-19T01:58:40;100616.50;;;4.37;47.17
22031;BME280;11179;52.106;21.024;2023-03-19T02:01:08;100619.66;;;4.34;47.09
22031;BME280;11179;52.106;21.024;2023-03-19T02:03:33;100616.09;;;4.27;47.29
22031;BME280;11179;52.106;21.024;2023-03-19T02:05:59;100612.56;;;4.20;47.22
22031;BME280;11179;52.106;21.024;2023-03-19T02:08:27;100608.56;;;4.16;47.41
22031;BME280;11179;52.106;21.024;2023-03-19T02:10:54;100622.78;;;4.18;47.42
22031;BME280;11179;52.106;21.024;2023-03-19T02:13:24;100609.00;;;4.13;47.41
22031;BME280;11179;52.106;21.024;2023-03-19T02:15:49;100611.28;;;4.16;47.63
22031;BME280;11179;52.106;21.024;2023-03-19T02:18:16;100622.81;;;4.11;47.71
22031;BME280;11179;52.106;21.024;2023-03-19T02:21:12;100617.38;;;4.11;47.77
22031;BME280;11179;52.106;21.024;2023-03-19T02:26:21;100610.06;;;4.05;47.72
22031;BME280;11179;52.106;21.024;2023-03-19T02:28:49;100611.31;;;4.02;47.96
22031;BME280;11179;52.106;21.024;2023-03-19T02:31:16;100602.34;;;3.95;47.77
22031;BME280;11179;52.106;21.024;2023-03-19T02:33:43;100618.00;;;3.93;47.94
22031;BME280;11179;52.106;21.024;2023-03-19T02:36:13;100597.91;;;3.81;48.30
22031;BME280;11179;52.106;21.024;2023-03-19T02:38:41;100616.50;;;3.84;48.35
22031;BME280;11179;52.106;21.024;2023-03-19T02:41:07;100619.63;;;3.81;48.35
22031;BME280;11179;52.106;21.024;2023-03-19T02:43:37;100620.28;;;3.83;48.36
22031;BME280;11179;52.106;21.024;2023-03-19T02:46:04;100618.19;;;3.72;48.43
22031;BME280;11179;52.106;21.024;2023-03-19T02:48:31;100625.47;;;3.78;48.58
22031;BME280;11179;52.106;21.024;2023-03-19T02:50:57;100631.13;;;3.77;48.62
22031;BME280;11179;52.106;21.024;2023-03-19T02:53:22;100613.56;;;3.66;48.56
22031;BME280;11179;52.106;21.024;2023-03-19T02:55:47;100630.28;;;3.69;48.72
22031;BME280;11179;52.106;21.024;2023-03-19T02:58:13;100620.22;;;3.63;48.79
22031;BME280;11179;52.106;21.024;2023-03-19T03:00:39;100622.13;;;3.63;48.65
22031;BME280;11179;52.106;21.024;2023-03-19T03:03:05;100629.22;;;3.64;48.90
22031;BME280;11179;52.106;21.024;2023-03-19T03:05:34;100632.78;;;3.64;48.98
22031;BME280;11179;52.106;21.024;2023-03-19T03:08:00;100636.72;;;3.62;48.88
22031;BME280;11179;52.106;21.024;2023-03-19T03:10:25;100620.66;;;3.54;49.21
22031;BME280;11179;52.106;21.024;2023-03-19T03:12:50;100627.13;;;3.53;49.14
22031;BME280;11179;52.106;21.024;2023-03-19T03:15:16;100632.53;;;3.53;49.13
22031;BME280;11179;52.106;21.024;2023-03-19T03:17:43;100631.91;;;3.51;49.18
22031;BME280;11179;52.106;21.024;2023-03-19T03:20:12;100628.56;;;3.49;49.53
22031;BME280;11179;52.106;21.024;2023-03-19T03:22:38;100624.38;;;3.40;49.58
22031;BME280;11179;52.106;21.024;2023-03-19T03:25:04;100624.38;;;3.40;49.74
22031;BME280;11179;52.106;21.024;2023-03-19T03:27:30;100631.72;;;3.46;49.60
22031;BME280;11179;52.106;21.024;2023-03-19T03:29:56;100616.44;;;3.38;49.69
22031;BME280;11179;52.106;21.024;2023-03-19T03:32:22;100625.66;;;3.44;49.73
22031;BME280;11179;52.106;21.024;2023-03-19T03:34:47;100615.19;;;3.41;49.63
22031;BME280;11179;52.106;21.024;2023-03-19T03:37:13;100620.41;;;3.42;49.89
22031;BME280;11179;52.106;21.024;2023-03-19T03:39:38;100621.66;;;3.40;49.92
22031;BME280;11179;52.106;21.024;2023-03-19T03:42:04;100612.25;;;3.35;50.13
22031;BME280;11179;52.106;21.024;2023-03-19T03:44:29;100614.75;;;3.30;50.11
22031;BME280;11179;52.106;21.024;2023-03-19T03:46:55;100614.97;;;3.29;50.15
22031;BME280;11179;52.106;21.024;2023-03-19T03:49:21;100614.31;;;3.27;50.21
22031;BME280;11179;52.106;21.024;2023-03-19T03:51:46;100615.16;;;3.27;50.44
22031;BME280;11179;52.106;21.024;2023-03-19T03:54:11;100613.03;;;3.23;50.34
22031;BME280;11179;52.106;21.024;2023-03-19T03:56:37;100612.84;;;3.18;50.43
22031;BME280;11179;52.106;21.024;2023-03-19T03:59:02;100597.59;;;3.17;50.35
22031;BME280;11179;52.106;21.024;2023-03-19T04:01:28;100610.97;;;3.18;50.37
22031;BME280;11179;52.106;21.024;2023-03-19T04:03:53;100616.41;;;3.18;50.55
22031;BME280;11179;52.106;21.024;2023-03-19T04:06:21;100619.31;;;3.17;50.36
22031;BME280;11179;52.106;21.024;2023-03-19T04:08:47;100611.97;;;3.11;50.66
22031;BME280;11179;52.106;21.024;2023-03-19T04:11:13;100615.91;;;3.08;50.76
22031;BME280;11179;52.106;21.024;2023-03-19T04:13:38;100606.28;;;2.99;50.80
22031;BME280;11179;52.106;21.024;2023-03-19T04:16:04;100597.91;;;2.94;50.94
22031;BME280;11179;52.106;21.024;2023-03-19T04:18:30;100602.09;;;2.90;51.09
22031;BME280;11179;52.106;21.024;2023-03-19T04:20:56;100594.56;;;2.85;51.21
22031;BME280;11179;52.106;21.024;2023-03-19T04:23:22;100606.63;;;2.83;51.13
22031;BME280;11179;52.106;21.024;2023-03-19T04:25:47;100602.44;;;2.80;51.09
22031;BME280;11179;52.106;21.024;2023-03-19T04:28:13;100596.81;;;2.75;51.22
22031;BME280;11179;52.106;21.024;2023-03-19T04:30:38;100590.94;;;2.72;51.15
22031;BME280;11179;52.106;21.024;2023-03-19T04:33:04;100593.28;;;2.75;51.11
22031;BME280;11179;52.106;21.024;2023-03-19T04:35:29;100604.56;;;2.78;51.03
22031;BME280;11179;52.106;21.024;2023-03-19T04:37:55;100586.81;;;2.76;51.28
22031;BME280;11179;52.106;21.024;2023-03-19T04:40:20;100603.72;;;2.78;51.32
22031;BME280;11179;52.106;21.024;2023-03-19T04:42:46;100604.75;;;2.77;51.38
22031;BME280;11179;52.106;21.024;2023-03-19T04:45:11;100600.75;;;2.73;51.49
22031;BME280;11179;52.106;21.024;2023-03-19T04:47:37;100600.75;;;2.73;51.37
22031;BME280;11179;52.106;21.024;2023-03-19T04:50:03;100601.59;;;2.73;51.56
22031;BME280;11179;52.106;21.024;2023-03-19T04:52:29;100602.63;;;2.72;51.39
22031;BME280;11179;52.106;21.024;2023-03-19T04:54:55;100598.22;;;2.64;51.61
22031;BME280;11179;52.106;21.024;2023-03-19T04:57:20;100608.25;;;2.71;51.42
22031;BME280;11179;52.106;21.024;2023-03-19T04:59:45;100605.94;;;2.68;51.54
22031;BME280;11179;52.106;21.024;2023-03-19T05:02:11;100610.53;;;2.67;51.74
22031;BME280;11179;52.106;21.024;2023-03-19T05:04:37;100605.53;;;2.71;51.43
22031;BME280;11179;52.106;21.024;2023-03-19T05:07:02;100612.66;;;2.72;51.81
22031;BME280;11179;52.106;21.024;2023-03-19T05:09:28;100613.72;;;2.77;51.80
22031;BME280;11179;52.106;21.024;2023-03-19T05:11:55;100605.53;;;2.71;51.72
22031;BME280;11179;52.106;21.024;2023-03-19T05:14:20;100612.91;;;2.83;51.58
22031;BME280;11179;52.106;21.024;2023-03-19T05:16:46;100624.63;;;2.90;51.49
22031;BME280;11179;52.106;21.024;2023-03-19T05:19:11;100619.22;;;2.90;51.43
22031;BME280;11179;52.106;21.024;2023-03-19T05:21:36;100620.25;;;2.96;51.42
22031;BME280;11179;52.106;21.024;2023-03-19T05:24:02;100612.31;;;2.94;51.53
22031;BME280;11179;52.106;21.024;2023-03-19T05:26:27;100625.53;;;3.04;51.50
22031;BME280;11179;52.106;21.024;2023-03-19T05:28:53;100630.59;;;3.33;51.50
22031;BME280;11179;52.106;21.024;2023-03-19T05:31:18;100618.56;;;3.76;51.17
22031;BME280;11179;52.106;21.024;2023-03-19T05:33:43;100632.84;;;4.24;50.63
22031;BME280;11179;52.106;21.024;2023-03-19T05:36:09;100620.00;;;4.57;50.34
22031;BME280;11179;52.106;21.024;2023-03-19T05:38:34;100626.78;;;4.99;49.76
22031;BME280;11179;52.106;21.024;2023-03-19T05:41:06;100623.25;;;5.37;49.00
22031;BME280;11179;52.106;21.024;2023-03-19T05:43:32;100614.59;;;5.78;48.76
22031;BME280;11179;52.106;21.024;2023-03-19T05:45:58;100613.22;;;6.18;48.01
22031;BME280;11179;52.106;21.024;2023-03-19T05:48:24;100616.97;;;6.49;47.36
22031;BME280;11179;52.106;21.024;2023-03-19T05:50:50;100616.38;;;6.83;46.95
22031;BME280;11179;52.106;21.024;2023-03-19T05:53:17;100603.09;;;7.35;46.51
22031;BME280;11179;52.106;21.024;2023-03-19T05:55:42;100607.66;;;7.83;45.55
22031;BME280;11179;52.106;21.024;2023-03-19T05:58:07;100603.56;;;8.27;45.25
22031;BME280;11179;52.106;21.024;2023-03-19T06:00:33;100605.47;;;8.61;44.49
22031;BME280;11179;52.106;21.024;2023-03-19T06:02:58;100600.19;;;8.83;44.10
22031;BME280;11179;52.106;21.024;2023-03-19T06:05:24;100604.06;;;9.11;43.34
22031;BME280;11179;52.106;21.024;2023-03-19T06:07:49;100607.50;;;9.46;42.86
22031;BME280;11179;52.106;21.024;2023-03-19T06:10:15;100600.88;;;9.59;42.38
22031;BME280;11179;52.106;21.024;2023-03-19T06:12:40;100612.94;;;9.74;41.95
22031;BME280;11179;52.106;21.024;2023-03-19T06:15:06;100600.16;;;10.08;41.15
22031;BME280;11179;52.106;21.024;2023-03-19T06:17:33;100603.63;;;10.37;40.51
22031;BME280;11179;52.106;21.024;2023-03-19T06:19:58;100597.25;;;10.54;40.41
22031;BME280;11179;52.106;21.024;2023-03-19T06:22:24;100609.00;;;10.88;39.67
22031;BME280;11179;52.106;21.024;2023-03-19T06:24:49;100616.28;;;10.99;39.19
22031;BME280;11179;52.106;21.024;2023-03-19T06:27:14;100614.69;;;10.81;39.07
22031;BME280;11179;52.106;21.024;2023-03-19T06:29:39;100611.41;;;10.62;38.68
22031;BME280;11179;52.106;21.024;2023-03-19T06:32:05;100612.38;;;10.73;38.89
22031;BME280;11179;52.106;21.024;2023-03-19T06:34:31;100614.31;;;10.94;38.45
22031;BME280;11179;52.106;21.024;2023-03-19T06:36:56;100611.25;;;11.12;38.01
22031;BME280;11179;52.106;21.024;2023-03-19T06:39:22;100599.00;;;11.42;37.20
22031;BME280;11179;52.106;21.024;2023-03-19T06:41:47;100612.53;;;11.75;36.98
22031;BME280;11179;52.106;21.024;2023-03-19T06:44:13;100610.25;;;11.99;36.89
22031;BME280;11179;52.106;21.024;2023-03-19T06:46:38;100617.47;;;12.37;36.50
22031;BME280;11179;52.106;21.024;2023-03-19T06:49:03;100615.03;;;12.78;35.54
22031;BME280;11179;52.106;21.024;2023-03-19T06:51:28;100623.47;;;13.18;34.82
22031;BME280;11179;52.106;21.024;2023-03-19T06:53:54;100634.63;;;13.49;34.25
22031;BME280;11179;52.106;21.024;2023-03-19T06:56:20;100622.81;;;13.58;34.26
22031;BME280;11179;52.106;21.024;2023-03-19T06:58:46;100621.50;;;13.81;34.13
22031;BME280;11179;52.106;21.024;2023-03-19T07:01:11;100622.06;;;14.03;33.67
22031;BME280;11179;52.106;21.024;2023-03-19T07:03:36;100617.38;;;14.19;33.31
22031;BME280;11179;52.106;21.024;2023-03-19T07:06:04;100618.75;;;14.37;33.02
22031;BME280;11179;52.106;21.024;2023-03-19T07:08:29;100629.78;;;14.42;32.85
22031;BME280;11179;52.106;21.024;2023-03-19T07:10:56;100625.94;;;14.28;32.63
22031;BME280;11179;52.106;21.024;2023-03-19T07:13:22;100625.09;;;14.07;32.55
22031;BME280;11179;52.106;21.024;2023-03-19T07:15:48;100620.38;;;13.77;32.77
22031;BME280;11179;52.106;21.024;2023-03-19T07:18:13;100631.66;;;13.60;33.16
22031;BME280;11179;52.106;21.024;2023-03-19T07:20:38;100632.69;;;13.44;32.74
22031;BME280;11179;52.106;21.024;2023-03-19T07:23:04;100629.63;;;13.46;32.70
22031;BME280;11179;52.106;21.024;2023-03-19T07:25:29;100624.44;;;13.54;33.12
22031;BME280;11179;52.106;21.024;2023-03-19T07:27:54;100627.00;;;13.76;32.67
22031;BME280;11179;52.106;21.024;2023-03-19T07:30:20;100630.88;;;14.00;32.41
22031;BME280;11179;52.106;21.024;2023-03-19T07:32:45;100636.72;;;14.34;32.03
22031;BME280;11179;52.106;21.024;2023-03-19T07:35:11;100632.81;;;14.71;31.76
22031;BME280;11179;52.106;21.024;2023-03-19T07:37:38;100625.00;;;15.03;31.60
22031;BME280;11179;52.106;21.024;2023-03-19T07:40:04;100619.63;;;15.32;31.16
22031;BME280;11179;52.106;21.024;2023-03-19T07:42:29;100620.84;;;15.70;31.04
22031;BME280;11179;52.106;21.024;2023-03-19T07:44:55;100617.09;;;15.95;30.70
22031;BME280;11179;52.106;21.024;2023-03-19T07:47:20;100614.66;;;16.23;30.36
22031;BME280;11179;52.106;21.024;2023-03-19T07:49:45;100626.66;;;16.42;30.06
22031;BME280;11179;52.106;21.024;2023-03-19T07:52:11;100624.25;;;16.64;29.51
22031;BME280;11179;52.106;21.024;2023-03-19T07:54:37;100618.69;;;16.64;29.78
22031;BME280;11179;52.106;21.024;2023-03-19T07:57:02;100629.44;;;17.00;29.91
22031;BME280;11179;52.106;21.024;2023-03-19T07:59:28;100613.19;;;17.12;29.22
22031;BME280;11179;52.106;21.024;2023-03-19T08:01:53;100617.97;;;17.30;29.17
22031;BME280;11179;52.106;21.024;2023-03-19T08:04:18;100608.28;;;17.51;29.08
22031;BME280;11179;52.106;21.024;2023-03-19T08:06:44;100617.22;;;17.67;28.78
22031;BME280;11179;52.106;21.024;2023-03-19T08:09:09;100625.16;;;17.74;28.78
22031;BME280;11179;52.106;21.024;2023-03-19T08:11:35;100615.78;;;17.88;28.80
22031;BME280;11179;52.106;21.024;2023-03-19T08:14:01;100613.38;;;18.01;28.52
22031;BME280;11179;52.106;21.024;2023-03-19T08:16:27;100609.09;;;18.08;28.66
22031;BME280;11179;52.106;21.024;2023-03-19T08:18:52;100605.38;;;18.13;28.38
22031;BME280;11179;52.106;21.024;2023-03-19T08:21:17;100610.69;;;18.28;28.67
22031;BME280;11179;52.106;21.024;2023-03-19T08:23:43;100616.47;;;18.32;28.42
22031;BME280;11179;52.106;21.024;2023-03-19T08:26:08;100608.00;;;18.42;28.34
22031;BME280;11179;52.106;21.024;2023-03-19T08:28:33;100610.16;;;18.45;28.35
22031;BME280;11179;52.106;21.024;2023-03-19T08:31:11;100599.16;;;18.53;28.07
22031;BME280;11179;52.106;21.024;2023-03-19T08:33:36;100589.06;;;18.57;28.29
22031;BME280;11179;52.106;21.024;2023-03-19T08:36:09;100598.66;;;18.65;27.97
22031;BME280;11179;52.106;21.024;2023-03-19T08:38:35;100600.25;;;18.85;27.54
22031;BME280;11179;52.106;21.024;2023-03-19T08:41:01;100592.63;;;18.90;27.72
22031;BME280;11179;52.106;21.024;2023-03-19T08:43:29;100596.94;;;18.83;27.81
22031;BME280;11179;52.106;21.024;2023-03-19T08:45:54;100608.00;;;18.42;27.54
22031;BME280;11179;52.106;21.024;2023-03-19T08:48:20;100599.09;;;18.07;27.94
22031;BME280;11179;52.106;21.024;2023-03-19T08:50:50;100590.25;;;17.86;28.43
22031;BME280;11179;52.106;21.024;2023-03-19T08:53:16;100606.72;;;17.83;28.54
22031;BME280;11179;52.106;21.024;2023-03-19T08:55:41;100597.31;;;17.79;28.75
22031;BME280;11179;52.106;21.024;2023-03-19T08:58:08;100592.19;;;17.86;28.96
22031;BME280;11179;52.106;21.024;2023-03-19T09:00:33;100599.09;;;18.07;29.10
22031;BME280;11179;52.106;21.024;2023-03-19T09:02:58;100593.63;;;18.35;28.64
22031;BME280;11179;52.106;21.024;2023-03-19T09:05:23;100588.16;;;18.48;28.15
22031;BME280;11179;52.106;21.024;2023-03-19T09:07:49;100599.00;;;18.77;27.91
22031;BME280;11179;52.106;21.024;2023-03-19T09:10:15;100601.28;;;18.89;27.84
22031;BME280;11179;52.106;21.024;2023-03-19T09:12:40;100587.88;;;18.77;27.86
22031;BME280;11179;52.106;21.024;2023-03-19T09:15:06;100585.09;;;18.77;27.90
22031;BME280;11179;52.106;21.024;2023-03-19T09:17:31;100594.84;;;18.61;27.51
22031;BME280;11179;52.106;21.024;2023-03-19T09:19:57;100597.63;;;18.47;28.06
22031;BME280;11179;52.106;21.024;2023-03-19T09:22:22;100594.72;;;18.20;28.14
22031;BME280;11179;52.106;21.024;2023-03-19T09:24:48;100598.28;;;18.07;28.42
22031;BME280;11179;52.106;21.024;2023-03-19T09:27:13;100590.72;;;17.93;28.36
22031;BME280;11179;52.106;21.024;2023-03-19T09:29:39;100589.44;;;17.86;28.65
22031;BME280;11179;52.106;21.024;2023-03-19T09:32:05;100591.06;;;17.87;28.29
22031;BME280;11179;52.106;21.024;2023-03-19T09:34:31;100585.53;;;17.87;28.57
22031;BME280;11179;52.106;21.024;2023-03-19T09:36:56;100586.16;;;17.65;28.35
22031;BME280;11179;52.106;21.024;2023-03-19T09:39:22;100587.00;;;17.42;28.62
22031;BME280;11179;52.106;21.024;2023-03-19T09:41:59;100593.44;;;17.37;28.89
22031;BME280;11179;52.106;21.024;2023-03-19T09:44:30;100587.22;;;17.27;28.90
22031;BME280;11179;52.106;21.024;2023-03-19T09:47:23;100587.44;;;17.30;28.96
22031;BME280;11179;52.106;21.024;2023-03-19T09:49:51;100582.75;;;17.49;28.92
22031;BME280;11179;52.106;21.024;2023-03-19T09:55:33;100583.28;;;17.51;28.52
22031;BME280;11179;52.106;21.024;2023-03-19T09:58:00;100576.09;;;17.50;28.83
22031;BME280;11179;52.106;21.024;2023-03-19T10:00:35;100579.69;;;17.70;28.40
22031;BME280;11179;52.106;21.024;2023-03-19T10:08:40;100571.78;;;18.60;28.09
22031;BME280;11179;52.106;21.024;2023-03-19T10:14:12;100567.25;;;18.92;27.57
22031;BME280;11179;52.106;21.024;2023-03-19T10:16:44;100573.34;;;19.08;27.79
22031;BME280;11179;52.106;21.024;2023-03-19T10:19:16;100567.56;;;19.04;27.58
22031;BME280;11179;52.106;21.024;2023-03-19T10:21:47;100564.59;;;19.01;27.11
22031;BME280;11179;52.106;21.024;2023-03-19T10:24:21;100567.47;;;18.95;27.58
22031;BME280;11179;52.106;21.024;2023-03-19T10:26:55;100555.63;;;18.90;27.00
22031;BME280;11179;52.106;21.024;2023-03-19T10:29:22;100571.16;;;18.91;27.33
22031;BME280;11179;52.106;21.024;2023-03-19T10:34:28;100575.09;;;19.04;27.26
22031;BME280;11179;52.106;21.024;2023-03-19T10:36:59;100562.94;;;18.99;27.04
22031;BME280;11179;52.106;21.024;2023-03-19T10:39:26;100565.72;;;18.99;26.86
22031;BME280;11179;52.106;21.024;2023-03-19T10:44:30;100565.59;;;18.91;26.64
22031;BME280;11179;52.106;21.024;2023-03-19T10:46:57;100567.06;;;18.75;26.66
22031;BME280;11179;52.106;21.024;2023-03-19T10:49:23;100568.06;;;18.65;26.80
22031;BME280;11179;52.106;21.024;2023-03-19T10:51:49;100580.44;;;18.59;26.70
22031;BME280;11179;52.106;21.024;2023-03-19T10:54:24;100571.31;;;18.40;26.97
22031;BME280;11179;52.106;21.024;2023-03-19T10:56:50;100569.53;;;18.30;27.49
22031;BME280;11179;52.106;21.024;2023-03-19T10:59:39;100572.03;;;18.13;27.60
22031;BME280;11179;52.106;21.024;2023-03-19T11:02:24;100562.63;;;17.95;27.88
22031;BME280;11179;52.106;21.024;2023-03-19T11:05:06;100563.81;;;17.89;27.77
22031;BME280;11179;52.106;21.024;2023-03-19T11:07:33;100562.69;;;17.90;27.78
22031;BME280;11179;52.106;21.024;2023-03-19T11:10:00;100563.53;;;17.90;27.57
22031;BME280;11179;52.106;21.024;2023-03-19T11:12:30;100562.63;;;17.95;27.71
22031;BME280;11179;52.106;21.024;2023-03-19T11:14:58;100557.75;;;17.87;27.90
22031;BME280;11179;52.106;21.024;2023-03-19T11:17:28;100549.13;;;17.88;28.11
22031;BME280;11179;52.106;21.024;2023-03-19T11:19:56;100554.19;;;18.00;28.23
22031;BME280;11179;52.106;21.024;2023-03-19T11:22:32;100558.81;;;17.91;27.95
22031;BME280;11179;52.106;21.024;2023-03-19T11:25:24;100540.72;;;17.75;28.00
22031;BME280;11179;52.106;21.024;2023-03-19T11:28:11;100537.06;;;17.61;28.23
22031;BME280;11179;52.106;21.024;2023-03-19T11:30:46;100540.28;;;17.49;28.56
22031;BME280;11179;52.106;21.024;2023-03-19T11:39:11;100534.41;;;17.32;28.60
22031;BME280;11179;52.106;21.024;2023-03-19T11:50:43;100524.28;;;17.22;28.99
22031;BME280;11179;52.106;21.024;2023-03-19T12:04:16;100507.25;;;17.47;28.21
22031;BME280;11179;52.106;21.024;2023-03-19T12:09:53;100510.28;;;17.51;27.69
22031;BME280;11179;52.106;21.024;2023-03-19T12:18:00;100490.69;;;17.42;28.32
22031;BME280;11179;52.106;21.024;2023-03-19T12:21:04;100493.66;;;17.46;28.08
22031;BME280;11179;52.106;21.024;2023-03-19T12:23:58;100494.28;;;17.43;27.81
22031;BME280;11179;52.106;21.024;2023-03-19T12:31:53;100494.72;;;17.12;27.82
22031;BME280;11179;52.106;21.024;2023-03-19T12:34:28;100484.50;;;17.08;27.76
22031;BME280;11179;52.106;21.024;2023-03-19T12:37:15;100490.53;;;17.15;27.95
22031;BME280;11179;52.106;21.024;2023-03-19T12:42:45;100484.44;;;17.32;27.89
22031;BME280;11179;52.106;21.024;2023-03-19T12:47:56;100471.50;;;17.27;27.87
22031;BME280;11179;52.106;21.024;2023-03-19T12:50:24;100473.34;;;17.13;28.60
22031;BME280;11179;52.106;21.024;2023-03-19T12:52:54;100468.34;;;17.15;28.44
22031;BME280;11179;52.106;21.024;2023-03-19T12:55:26;100486.16;;;17.09;28.27
22031;BME280;11179;52.106;21.024;2023-03-19T12:58:02;100484.13;;;16.96;28.24
22031;BME280;11179;52.106;21.024;2023-03-19T13:00:45;100477.31;;;16.88;28.29
22031;BME280;11179;52.106;21.024;2023-03-19T13:03:18;100476.84;;;16.81;28.51
22031;BME280;11179;52.106;21.024;2023-03-19T13:08:29;100476.41;;;16.93;28.89
22031;BME280;11179;52.106;21.024;2023-03-19T13:10:57;100468.59;;;16.95;28.58
22031;BME280;11179;52.106;21.024;2023-03-19T13:13:48;100461.06;;;17.00;28.70
22031;BME280;11179;52.106;21.024;2023-03-19T13:19:08;100444.66;;;17.04;29.28
22031;BME280;11179;52.106;21.024;2023-03-19T13:21:39;100458.91;;;17.16;28.98
22031;BME280;11179;52.106;21.024;2023-03-19T13:24:16;100456.63;;;17.18;28.79
22031;BME280;11179;52.106;21.024;2023-03-19T13:26:43;100451.47;;;17.11;28.68
22031;BME280;11179;52.106;21.024;2023-03-19T13:31:39;100445.16;;;17.06;28.59
22031;BME280;11179;52.106;21.024;2023-03-19T13:34:19;100441.53;;;17.05;28.85
22031;BME280;11179;52.106;21.024;2023-03-19T13:36:54;100434.19;;;16.96;28.82
22031;BME280;11179;52.106;21.024;2023-03-19T13:39:27;100438.09;;;16.95;28.66
22031;BME280;11179;52.106;21.024;2023-03-19T13:44:33;100438.09;;;16.76;28.82
22031;BME280;11179;52.106;21.024;2023-03-19T14:04:05;100433.19;;;16.68;29.16
22031;BME280;11179;52.106;21.024;2023-03-19T14:06:41;100432.75;;;16.61;29.46
22031;BME280;11179;52.106;21.024;2023-03-19T14:09:27;100428.34;;;16.55;29.60
22031;BME280;11179;52.106;21.024;2023-03-19T14:11:54;100435.53;;;16.56;29.39
22031;BME280;11179;52.106;21.024;2023-03-19T14:14:21;100425.56;;;16.55;29.56
22031;BME280;11179;52.106;21.024;2023-03-19T14:16:50;100433.59;;;16.56;29.78
22031;BME280;11179;52.106;21.024;2023-03-19T14:19:18;100421.66;;;16.61;29.44
22031;BME280;11179;52.106;21.024;2023-03-19T14:22:05;100423.72;;;16.74;29.27